Terminal Aerodrome Forecast
Issued by NWS Charleston, WV

Current Version | Previous Version | Text Only | Print | Product List | Glossary Off
Versions: 1 2 3 4 5 6 7 8 9 10 11 12 13 14 15 16 17 18 19 20 21 22 23 24 25 26

757
FTUS41 KRLX 020809 AAA
TAFBKW
TAF AMD
KBKW 020809Z 0208/0306 20006KT P6SM SCT035
     FM021000 23006KT 5SM BR BKN015
     FM021400 24008KT P6SM BKN010
     FM021900 25010G16KT P6SM -SHRA VCTS BKN035CB
     FM022200 29006KT 5SM SHRA VCTS OVC025CB=

USA.gov is the U.S. government's official web portal to all federal, state and local government web resources and services.